Piney Creek, North Carolina
Current Conditions -  °F | °C
As of 6:55 AM on Friday 28 Nov 2014 (Local Time) from KGEV Reporting Station
Overcast Overcast  
Wind Chill: 12°   Ceiling: 2100
Heat Index: 22°   Visibility: 10mi
Dew Point: 12°   Wind: 8mph
Humidity: 67%   Direction: 270°W
Pressure: 30.2"   Gusts: 18mph
Location:  36.55°N, 81.29°W
Report Text: KGEV 281155Z AUTO 27007G16KT 210V320 10SM OVC021 M06/M11 A3020 RMK AO2 T10581111 11048 21058
Loading
Personal Weather Stations






























Interactive Weather Map New forecast layout! Learn more

10-Day Weather Forecast

Advertisements
Track Severe Weather on mobile